Time;durP1;ratioP1;P1;durP2;ratioP2;P2;SDS_P1;SDS_P2;PMS_P1;PMS_P2;Temp;Humidity;BMP_temperature;BMP_pressure;BME280_temperature;BME280_humidity;BME280_pressure;Samples;Min_cycle;Max_cycle;Signal;HPM_P1;HPM_P2
2023/12/28 00:01:21;;;;;;;18.25;2.42;;;8.40;99.90;;;;;;5034217;28;20028;-89
2023/12/28 00:03:47;;;;;;;15.57;1.63;;;8.50;99.90;;;;;;5035214;28;20389;-90
2023/12/28 00:06:13;;;;;;;16.90;2.72;;;8.50;99.90;;;;;;5034247;28;20029;-90
2023/12/28 00:08:39;;;;;;;11.30;2.00;;;8.50;99.90;;;;;;5034085;28;20033;-90
2023/12/28 00:11:05;;;;;;;27.60;3.50;;;8.50;99.90;;;;;;5035150;28;20025;-90
2023/12/28 00:13:30;;;;;;;23.20;2.78;;;8.50;99.90;;;;;;5033959;28;20028;-90
2023/12/28 00:15:56;;;;;;;22.38;4.03;;;8.50;99.90;;;;;;5034754;28;20033;-89
2023/12/28 00:18:22;;;;;;;20.95;3.35;;;8.50;99.90;;;;;;5035243;28;20018;-91
2023/12/28 00:20:48;;;;;;;16.05;2.85;;;8.40;99.90;;;;;;5037693;28;20025;-90
2023/12/28 00:23:13;;;;;;;22.25;3.17;;;8.40;99.90;;;;;;5036793;28;20029;-91
2023/12/28 00:25:39;;;;;;;19.63;2.72;;;8.40;99.90;;;;;;5037756;28;20051;-90
2023/12/28 00:28:05;;;;;;;9.57;1.58;;;8.30;99.90;;;;;;5037136;28;20030;-89
2023/12/28 00:30:32;;;;;;;15.68;2.47;;;8.30;99.90;;;;;;5037012;28;20151;-91
2023/12/28 00:32:58;;;;;;;29.00;2.88;;;8.30;99.90;;;;;;5035650;28;20045;-90
2023/12/28 00:35:32;;;;;;;20.08;2.50;;;8.30;99.90;;;;;;5036950;28;20100;-93
2023/12/28 00:37:58;;;;;;;24.30;2.83;;;8.20;99.90;;;;;;5035833;28;20112;-91
2023/12/28 00:40:24;;;;;;;23.63;2.38;;;8.10;99.90;;;;;;5035159;28;20123;-91
2023/12/28 00:42:49;;;;;;;29.40;3.83;;;8.10;99.90;;;;;;5034660;28;20025;-91
2023/12/28 00:45:15;;;;;;;20.38;2.88;;;8.10;99.90;;;;;;5034471;28;20037;-89
2023/12/28 00:47:43;;;;;;;36.83;4.72;;;8.10;99.90;;;;;;5033580;28;20091;-89
2023/12/28 00:50:11;;;;;;;29.48;3.75;;;8.10;99.90;;;;;;5035356;28;20057;-90
2023/12/28 00:52:37;;;;;;;26.73;4.10;;;8.20;99.90;;;;;;5037082;28;20025;-90
2023/12/28 00:55:03;;;;;;;13.32;2.95;;;8.10;99.90;;;;;;5033244;28;20021;-90
2023/12/28 00:57:29;;;;;;;19.25;3.33;;;8.20;99.90;;;;;;5033137;28;20080;-90
2023/12/28 00:59:55;;;;;;;17.70;2.42;;;8.20;99.90;;;;;;5033234;28;20033;-90
2023/12/28 01:02:21;;;;;;;18.58;2.70;;;8.20;99.90;;;;;;5033059;28;20034;-90
2023/12/28 01:04:46;;;;;;;24.13;3.90;;;8.20;99.90;;;;;;5033050;28;20029;-89
2023/12/28 01:07:12;;;;;;;21.05;2.47;;;8.30;99.90;;;;;;5034151;28;20025;-89
2023/12/28 01:09:38;;;;;;;21.20;3.03;;;8.20;99.90;;;;;;5032826;28;20123;-89
2023/12/28 01:12:05;;;;;;;25.35;3.85;;;8.20;99.90;;;;;;5032737;28;20024;-90
2023/12/28 01:14:30;;;;;;;19.85;3.08;;;8.20;99.90;;;;;;5032788;28;20499;-90
2023/12/28 01:16:56;;;;;;;11.05;3.15;;;8.10;99.90;;;;;;5034330;28;20048;-90
2023/12/28 01:19:23;;;;;;;19.80;2.55;;;8.10;99.90;;;;;;5032895;28;20041;-90
2023/12/28 01:21:49;;;;;;;30.77;3.30;;;8.10;99.90;;;;;;5034002;28;20018;-90
2023/12/28 01:24:15;;;;;;;19.48;3.20;;;8.10;99.90;;;;;;5032772;28;20029;-91
2023/12/28 01:26:41;;;;;;;35.67;3.75;;;8.10;99.90;;;;;;5033258;28;20097;-90
2023/12/28 01:29:07;;;;;;;30.42;3.92;;;8.10;99.90;;;;;;5032896;28;20104;-90
2023/12/28 01:31:33;;;;;;;30.80;3.92;;;8.10;99.90;;;;;;5034319;28;20071;-90
2023/12/28 01:33:58;;;;;;;35.17;4.80;;;8.10;99.90;;;;;;5034283;28;20077;-90
2023/12/28 01:36:25;;;;;;;21.33;3.28;;;8.10;99.90;;;;;;5033014;28;20033;-90
2023/12/28 01:38:51;;;;;;;27.10;4.82;;;8.10;99.90;;;;;;5033804;28;20045;-89
2023/12/28 01:41:17;;;;;;;16.70;2.60;;;8.10;99.90;;;;;;5045398;28;20045;-89
2023/12/28 01:43:43;;;;;;;16.40;2.63;;;8.10;99.90;;;;;;5045256;28;20496;-90
2023/12/28 01:46:15;;;;;;;22.83;3.65;;;8.20;99.90;;;;;;5046986;28;20041;-89
2023/12/28 01:48:42;;;;;;;21.15;3.30;;;8.20;99.90;;;;;;5052574;28;20052;-90
2023/12/28 01:51:08;;;;;;;25.77;2.90;;;8.20;99.90;;;;;;5052153;28;20025;-89
2023/12/28 01:53:34;;;;;;;22.52;3.50;;;8.30;99.90;;;;;;5049659;28;20036;-90
2023/12/28 01:56:00;;;;;;;15.93;2.78;;;8.30;99.90;;;;;;5051076;28;20022;-88
2023/12/28 01:58:28;;;;;;;17.70;2.53;;;8.20;99.90;;;;;;5049167;28;20053;-89
2023/12/28 02:00:56;;;;;;;17.92;2.88;;;8.20;99.90;;;;;;5046490;28;20021;-89
2023/12/28 02:03:22;;;;;;;15.75;2.90;;;8.10;99.90;;;;;;5055028;28;20064;-91
2023/12/28 02:05:48;;;;;;;24.45;3.35;;;8.00;99.90;;;;;;5052405;28;20026;-90
2023/12/28 02:08:14;;;;;;;14.85;2.55;;;8.00;99.90;;;;;;5048249;28;20502;-88
2023/12/28 02:10:40;;;;;;;20.88;2.85;;;7.90;99.90;;;;;;5049646;28;20112;-89
2023/12/28 02:13:06;;;;;;;24.23;3.85;;;7.90;99.90;;;;;;5045879;28;20272;-91
2023/12/28 02:15:31;;;;;;;27.13;4.03;;;7.80;99.90;;;;;;5044509;28;20209;-90
2023/12/28 02:18:19;;;;;;;14.43;2.72;;;7.80;99.90;;;;;;5044057;28;20040;-91
2023/12/28 02:20:46;;;;;;;20.35;3.72;;;7.70;99.90;;;;;;5044382;28;20026;-90
2023/12/28 02:23:12;;;;;;;31.95;4.32;;;7.70;99.90;;;;;;5043131;28;20026;-90
2023/12/28 02:25:38;;;;;;;20.33;3.55;;;7.70;99.90;;;;;;5038211;28;20028;-90
2023/12/28 02:28:04;;;;;;;22.83;3.05;;;7.70;99.90;;;;;;5038295;28;20053;-90
2023/12/28 02:30:30;;;;;;;14.73;2.65;;;7.80;99.90;;;;;;5036776;28;20025;-90
2023/12/28 02:33:05;;;;;;;29.35;4.75;;;7.90;99.90;;;;;;5035964;28;20045;-89
2023/12/28 02:35:44;;;;;;;23.05;4.18;;;7.90;99.90;;;;;;5037334;28;20026;-90
2023/12/28 02:38:10;;;;;;;31.65;3.83;;;8.00;99.90;;;;;;5036443;28;20116;-89
2023/12/28 02:40:41;;;;;;;26.42;3.75;;;8.00;99.90;;;;;;5036101;28;20466;-90
2023/12/28 02:43:07;;;;;;;37.80;5.43;;;8.00;99.90;;;;;;5035913;28;20031;-90
2023/12/28 02:45:34;;;;;;;19.38;2.90;;;8.10;99.90;;;;;;5035996;28;20029;-90
2023/12/28 02:48:00;;;;;;;27.27;2.90;;;8.20;99.90;;;;;;5036249;28;20045;-90
2023/12/28 02:50:26;;;;;;;35.22;4.35;;;8.20;99.90;;;;;;5035921;28;20025;-90
2023/12/28 02:52:52;;;;;;;25.45;4.65;;;8.20;99.90;;;;;;5035698;28;20033;-90
2023/12/28 02:55:18;;;;;;;24.90;4.60;;;8.20;99.90;;;;;;5035874;28;20018;-90
2023/12/28 02:57:44;;;;;;;23.70;3.80;;;8.20;99.90;;;;;;5035411;28;20284;-90
2023/12/28 03:00:10;;;;;;;26.00;3.67;;;8.20;99.90;;;;;;5035699;28;20029;-90
2023/12/28 03:02:37;;;;;;;26.40;3.45;;;8.30;99.90;;;;;;5036680;28;20366;-89
2023/12/28 03:05:05;;;;;;;35.75;4.68;;;8.20;99.90;;;;;;5035577;28;20029;-90
2023/12/28 03:07:31;;;;;;;15.57;2.65;;;8.30;99.90;;;;;;5035090;28;20128;-90
2023/12/28 03:09:57;;;;;;;23.20;3.28;;;8.30;99.90;;;;;;5035264;28;20494;-90
2023/12/28 03:12:23;;;;;;;23.27;4.05;;;8.30;99.90;;;;;;5034618;28;20120;-90
2023/12/28 03:14:48;;;;;;;21.45;3.63;;;8.30;99.90;;;;;;5035086;28;20025;-90
2023/12/28 03:17:14;;;;;;;22.73;3.08;;;8.30;99.90;;;;;;5036220;28;20026;-89
2023/12/28 03:19:40;;;;;;;30.17;4.47;;;8.40;99.90;;;;;;5035349;28;20512;-90
2023/12/28 03:22:06;;;;;;;28.98;3.78;;;8.40;99.90;;;;;;5035879;28;20493;-90
2023/12/28 03:24:31;;;;;;;20.98;3.88;;;8.40;99.90;;;;;;5034850;28;20542;-90
2023/12/28 03:27:00;;;;;;;36.03;4.40;;;8.40;99.90;;;;;;5036173;28;20049;-89
2023/12/28 03:29:27;;;;;;;24.80;3.38;;;8.40;99.90;;;;;;5035886;28;20175;-89
2023/12/28 03:31:53;;;;;;;28.83;4.30;;;8.40;99.90;;;;;;5036083;28;20492;-91
2023/12/28 03:34:19;;;;;;;28.45;3.15;;;8.40;99.90;;;;;;5036923;28;20033;-89
2023/12/28 03:36:44;;;;;;;20.15;2.67;;;8.40;99.90;;;;;;5035145;28;20036;-90
2023/12/28 03:39:10;;;;;;;27.20;3.33;;;8.40;99.90;;;;;;5036301;28;20124;-90
2023/12/28 03:41:36;;;;;;;18.35;3.13;;;8.50;99.90;;;;;;5036266;28;20041;-89
2023/12/28 03:44:01;;;;;;;22.38;2.95;;;8.50;99.90;;;;;;5035502;28;20400;-90
2023/12/28 03:46:27;;;;;;;14.15;2.85;;;8.50;99.90;;;;;;5037839;28;20022;-90
2023/12/28 03:48:53;;;;;;;17.17;2.05;;;8.50;99.90;;;;;;5047047;28;20570;-90
2023/12/28 03:51:19;;;;;;;27.73;3.20;;;8.50;99.90;;;;;;5034881;28;20025;-91
2023/12/28 03:53:45;;;;;;;17.98;3.33;;;8.50;99.90;;;;;;5035930;28;20032;-91
2023/12/28 03:56:24;;;;;;;18.92;2.53;;;8.50;99.90;;;;;;5034909;28;20034;-91
2023/12/28 03:58:50;;;;;;;16.50;3.17;;;8.50;99.90;;;;;;5040180;28;20022;-91
2023/12/28 04:01:20;;;;;;;19.27;2.22;;;8.50;99.90;;;;;;5034372;28;20028;-90
2023/12/28 04:03:46;;;;;;;22.60;2.70;;;8.50;99.90;;;;;;5035594;28;20030;-90
2023/12/28 04:06:13;;;;;;;15.60;2.70;;;8.50;99.90;;;;;;5034654;28;20096;-91
2023/12/28 04:08:42;;;;;;;17.40;2.80;;;8.50;99.90;;;;;;5036635;28;20033;-90
2023/12/28 04:11:08;;;;;;;14.75;2.88;;;8.50;99.90;;;;;;5038423;28;20036;-91
2023/12/28 04:13:35;;;;;;;18.92;2.20;;;8.50;99.90;;;;;;5034022;28;20022;-91
2023/12/28 04:16:01;;;;;;;17.83;3.13;;;8.50;99.90;;;;;;5034153;28;20032;-90
2023/12/28 04:18:26;;;;;;;13.27;2.42;;;8.50;99.90;;;;;;5034558;28;20108;-90
2023/12/28 04:20:52;;;;;;;27.10;2.70;;;8.50;99.90;;;;;;5034890;28;20033;-92
2023/12/28 04:23:18;;;;;;;11.40;2.17;;;8.50;99.90;;;;;;5036911;28;20469;-90
2023/12/28 04:25:43;;;;;;;17.55;2.47;;;8.50;99.90;;;;;;5035971;28;20035;-90
2023/12/28 04:28:09;;;;;;;22.75;3.03;;;8.50;99.90;;;;;;5038744;28;20041;-90
2023/12/28 04:30:35;;;;;;;17.88;2.17;;;8.40;99.90;;;;;;5035857;28;20021;-90
2023/12/28 04:33:01;;;;;;;25.70;3.05;;;8.50;99.90;;;;;;5034481;28;20056;-90
2023/12/28 04:35:27;;;;;;;25.33;2.33;;;8.40;99.90;;;;;;5035630;28;20104;-90
2023/12/28 04:37:53;;;;;;;20.58;2.60;;;8.40;99.90;;;;;;5036080;28;20551;-90
2023/12/28 04:40:18;;;;;;;16.50;2.70;;;8.40;99.90;;;;;;5035847;28;20032;-90
2023/12/28 04:42:44;;;;;;;16.33;2.90;;;8.30;99.90;;;;;;5035855;28;20508;-90
2023/12/28 04:45:10;;;;;;;21.42;2.78;;;8.30;99.90;;;;;;5034160;28;20061;-89
2023/12/28 04:47:36;;;;;;;21.38;3.08;;;8.30;99.90;;;;;;5034459;28;20029;-90
2023/12/28 04:50:03;;;;;;;21.08;3.30;;;8.30;99.90;;;;;;5034555;28;20311;-90
2023/12/28 04:52:29;;;;;;;20.20;3.08;;;8.30;99.90;;;;;;5034442;28;20481;-90
2023/12/28 04:54:55;;;;;;;20.60;2.72;;;8.20;99.90;;;;;;5033396;28;20036;-90
2023/12/28 04:57:20;;;;;;;25.20;2.90;;;8.20;99.90;;;;;;5033447;28;20041;-89
2023/12/28 04:59:46;;;;;;;20.75;2.83;;;8.20;99.90;;;;;;5034621;28;20044;-90
2023/12/28 05:02:12;;;;;;;18.77;3.22;;;8.20;99.90;;;;;;5033268;28;20112;-89
2023/12/28 05:04:40;;;;;;;23.35;2.30;;;8.20;99.90;;;;;;5033520;28;20078;-90
2023/12/28 05:07:06;;;;;;;28.38;2.97;;;8.20;99.90;;;;;;5033947;28;20035;-89
2023/12/28 05:09:32;;;;;;;23.60;3.13;;;8.20;99.90;;;;;;5034558;28;20025;-91
2023/12/28 05:11:58;;;;;;;17.27;2.28;;;8.20;99.90;;;;;;5032713;28;20120;-90
2023/12/28 05:14:23;;;;;;;18.38;3.00;;;8.20;99.90;;;;;;5033175;28;20021;-91
2023/12/28 05:16:49;;;;;;;23.50;4.07;;;8.20;99.90;;;;;;5032767;28;20021;-91
2023/12/28 05:19:15;;;;;;;22.35;3.28;;;8.20;99.90;;;;;;5032798;28;20083;-90
2023/12/28 05:21:41;;;;;;;22.88;4.93;;;8.20;99.90;;;;;;5033861;28;20163;-91
2023/12/28 05:24:07;;;;;;;20.52;3.33;;;8.10;99.90;;;;;;5032962;28;20125;-90
2023/12/28 05:26:33;;;;;;;26.13;4.00;;;8.10;99.90;;;;;;5032652;28;20182;-90
2023/12/28 05:28:58;;;;;;;22.35;3.38;;;8.10;99.90;;;;;;5033596;28;20033;-90
2023/12/28 05:31:24;;;;;;;19.88;3.55;;;8.00;99.90;;;;;;5032749;28;20104;-90
2023/12/28 05:33:50;;;;;;;16.73;2.65;;;8.00;99.90;;;;;;5033790;28;20053;-91
2023/12/28 05:36:16;;;;;;;24.85;2.83;;;8.00;99.90;;;;;;5032204;28;20037;-91
2023/12/28 05:38:42;;;;;;;24.00;3.33;;;7.90;99.90;;;;;;5032929;28;20132;-91
2023/12/28 05:41:10;;;;;;;20.23;3.00;;;7.90;99.90;;;;;;5033697;28;20511;-92
2023/12/28 05:43:36;;;;;;;24.05;3.70;;;7.80;99.90;;;;;;5033554;28;20052;-91
2023/12/28 05:46:02;;;;;;;23.35;3.15;;;7.80;99.90;;;;;;5032497;28;20044;-90
2023/12/28 05:48:27;;;;;;;22.10;3.30;;;7.80;99.90;;;;;;5032578;28;20042;-90
2023/12/28 05:50:53;;;;;;;38.30;4.65;;;7.80;99.90;;;;;;5032536;28;20388;-90
2023/12/28 05:53:19;;;;;;;36.67;3.78;;;7.70;99.90;;;;;;5032453;28;20030;-90
2023/12/28 05:55:44;;;;;;;30.85;3.90;;;7.70;99.90;;;;;;5032612;28;20058;-91
2023/12/28 05:58:10;;;;;;;35.83;4.45;;;7.70;99.90;;;;;;5034050;28;20104;-90
2023/12/28 06:00:36;;;;;;;26.77;3.45;;;7.70;99.90;;;;;;5032621;28;20108;-90
2023/12/28 06:03:05;;;;;;;25.73;3.55;;;7.70;99.90;;;;;;5033002;28;20042;-90
2023/12/28 06:05:31;;;;;;;28.75;3.70;;;7.70;99.90;;;;;;5033161;28;20030;-90
2023/12/28 06:07:57;;;;;;;26.65;3.65;;;7.70;99.90;;;;;;5033488;28;20034;-90
2023/12/28 06:10:24;;;;;;;27.60;4.97;;;7.80;99.90;;;;;;5032700;28;20316;-91
2023/12/28 06:12:50;;;;;;;22.20;3.10;;;7.80;99.90;;;;;;5032612;28;20169;-90
2023/12/28 06:15:16;;;;;;;27.08;3.72;;;7.80;99.90;;;;;;5032748;28;20125;-91
2023/12/28 06:17:42;;;;;;;23.98;4.63;;;7.80;99.90;;;;;;5032554;28;20308;-91
2023/12/28 06:20:08;;;;;;;31.52;4.35;;;7.80;99.90;;;;;;5032581;28;20029;-91
2023/12/28 06:22:37;;;;;;;31.02;4.28;;;7.80;99.90;;;;;;5032329;28;20081;-91
2023/12/28 06:25:03;;;;;;;29.52;4.15;;;7.80;99.90;;;;;;5032336;28;20026;-91
2023/12/28 06:27:29;;;;;;;23.77;3.47;;;7.70;99.90;;;;;;5032338;28;20064;-90
2023/12/28 06:29:55;;;;;;;26.95;3.08;;;7.80;99.90;;;;;;5033274;28;20061;-91
2023/12/28 06:32:21;;;;;;;26.33;3.38;;;7.80;99.90;;;;;;5033368;28;20599;-90
2023/12/28 06:34:48;;;;;;;36.38;5.20;;;7.80;99.90;;;;;;5032137;28;20042;-91
2023/12/28 06:37:13;;;;;;;27.38;4.22;;;7.80;99.90;;;;;;5032301;28;20022;-91
2023/12/28 06:39:39;;;;;;;28.25;3.60;;;7.80;99.90;;;;;;5032390;28;20036;-90
2023/12/28 06:42:05;;;;;;;32.00;4.45;;;7.80;99.90;;;;;;5033672;28;20040;-91
2023/12/28 06:44:31;;;;;;;31.60;3.53;;;7.80;99.90;;;;;;5032134;28;20125;-91
2023/12/28 06:46:58;;;;;;;19.52;2.70;;;7.80;99.90;;;;;;5032419;28;20022;-90
2023/12/28 06:49:24;;;;;;;33.75;4.18;;;7.70;99.90;;;;;;5036119;28;20120;-90
2023/12/28 06:51:50;;;;;;;33.05;4.07;;;7.70;99.90;;;;;;5036826;28;20105;-91
2023/12/28 06:54:16;;;;;;;40.38;4.07;;;7.70;99.90;;;;;;5037092;28;20036;-91
2023/12/28 06:56:41;;;;;;;34.33;6.05;;;7.80;99.90;;;;;;5035783;28;20021;-90
2023/12/28 06:59:11;;;;;;;40.78;4.60;;;7.70;99.90;;;;;;5036568;28;20033;-91
2023/12/28 07:01:38;;;;;;;34.47;4.20;;;7.70;99.90;;;;;;5036081;28;20037;-91
2023/12/28 07:04:03;;;;;;;31.17;4.65;;;7.70;99.90;;;;;;5035647;28;20030;-90
2023/12/28 07:06:29;;;;;;;32.33;4.15;;;7.70;99.90;;;;;;5037183;28;20017;-90
2023/12/28 07:08:55;;;;;;;27.10;4.28;;;7.70;99.90;;;;;;5037588;28;20465;-89
2023/12/28 07:11:21;;;;;;;37.47;4.47;;;7.70;99.90;;;;;;5037459;28;20032;-90
2023/12/28 07:13:46;;;;;;;32.22;4.43;;;7.70;99.90;;;;;;5037328;28;20021;-91
2023/12/28 07:16:12;;;;;;;32.08;4.57;;;7.70;99.90;;;;;;5037223;28;20051;-90
2023/12/28 07:18:38;;;;;;;27.30;4.15;;;7.70;99.90;;;;;;5039655;28;20044;-89
2023/12/28 07:21:09;;;;;;;40.45;5.00;;;7.80;99.90;;;;;;5039496;28;20029;-90
2023/12/28 07:23:35;;;;;;;35.88;5.15;;;7.80;99.90;;;;;;5036558;28;20025;-90
2023/12/28 07:26:01;;;;;;;49.70;5.35;;;7.80;99.90;;;;;;5037862;28;20022;-90
2023/12/28 07:28:27;;;;;;;32.17;5.85;;;7.80;99.90;;;;;;5037030;28;20098;-90
2023/12/28 07:30:54;;;;;;;41.00;4.78;;;7.80;99.90;;;;;;5035113;28;20116;-91
2023/12/28 07:33:20;;;;;;;45.30;6.20;;;7.80;99.90;;;;;;5034994;28;20077;-91
2023/12/28 07:35:46;;;;;;;28.50;4.10;;;7.80;99.90;;;;;;5034792;28;20163;-91
2023/12/28 07:38:12;;;;;;;20.00;3.70;;;7.90;99.90;;;;;;5039507;28;20056;-91
2023/12/28 07:40:37;;;;;;;13.10;2.28;;;7.90;99.90;;;;;;5036226;28;20028;-91
2023/12/28 07:43:03;;;;;;;5.78;1.15;;;7.90;99.90;;;;;;5034862;28;20027;-91
2023/12/28 07:45:29;;;;;;;30.92;3.25;;;7.80;99.90;;;;;;5036116;28;20031;-92
2023/12/28 07:47:55;;;;;;;15.20;2.08;;;7.80;99.90;;;;;;5034970;28;20034;-91
2023/12/28 07:50:21;;;;;;;17.05;2.80;;;7.80;99.90;;;;;;5034842;28;20031;-91
2023/12/28 07:52:47;;;;;;;17.35;2.35;;;7.80;99.90;;;;;;5035674;28;20048;-91
2023/12/28 07:55:14;;;;;;;10.90;1.67;;;7.70;99.90;;;;;;5034464;28;20026;-90
2023/12/28 07:57:40;;;;;;;15.00;2.38;;;7.70;99.90;;;;;;5035938;28;20034;-90
2023/12/28 08:00:06;;;;;;;11.50;2.38;;;7.60;99.90;;;;;;5036041;28;20022;-91
2023/12/28 08:02:32;;;;;;;9.63;1.33;;;7.60;99.90;;;;;;5034957;28;20030;-91
2023/12/28 08:04:58;;;;;;;5.50;1.75;;;7.50;99.90;;;;;;5036194;28;20033;-89
2023/12/28 08:07:24;;;;;;;11.90;1.63;;;7.50;99.90;;;;;;5034650;28;20114;-91
2023/12/28 08:09:50;;;;;;;7.60;1.30;;;7.50;99.90;;;;;;5036325;28;20272;-92
2023/12/28 08:12:16;;;;;;;13.43;2.00;;;7.50;99.90;;;;;;5034289;28;20048;-91
2023/12/28 08:14:43;;;;;;;13.52;3.00;;;7.40;99.90;;;;;;5034301;28;20045;-91
2023/12/28 08:17:08;;;;;;;11.77;1.67;;;7.40;99.90;;;;;;5034506;28;20025;-90
2023/12/28 08:19:34;;;;;;;7.88;0.90;;;7.40;99.90;;;;;;5035722;28;20033;-91
2023/12/28 08:22:00;;;;;;;5.80;0.98;;;7.30;99.90;;;;;;5036950;28;20044;-91
2023/12/28 08:24:26;;;;;;;4.90;1.40;;;7.40;99.90;;;;;;5038736;28;20037;-91
2023/12/28 08:26:52;;;;;;;4.18;1.00;;;7.30;99.90;;;;;;5037109;28;20515;-91
2023/12/28 08:29:33;;;;;;;4.20;0.73;;;7.30;99.90;;;;;;5037127;28;20057;-91
2023/12/28 08:32:40;;;;;;;4.07;0.75;;;7.30;99.90;;;;;;5038919;28;20067;-91
2023/12/28 08:35:45;;;;;;;5.93;0.98;;;7.30;99.90;;;;;;5041019;28;20087;-91
2023/12/28 08:38:11;;;;;;;9.77;0.80;;;7.30;99.90;;;;;;5040613;28;20099;-91
2023/12/28 08:40:37;;;;;;;8.23;1.08;;;7.30;99.90;;;;;;5037936;28;20507;-92
2023/12/28 08:43:03;;;;;;;7.70;1.65;;;7.30;99.90;;;;;;5034310;28;20025;-92
2023/12/28 08:45:28;;;;;;;7.93;1.02;;;7.30;99.90;;;;;;5036467;28;20025;-91
2023/12/28 08:47:54;;;;;;;6.80;1.30;;;7.30;99.90;;;;;;5034278;28;20029;-91
2023/12/28 08:50:20;;;;;;;14.00;2.20;;;7.30;99.90;;;;;;5034611;28;20101;-92
2023/12/28 08:52:45;;;;;;;7.57;1.30;;;7.30;99.90;;;;;;5034857;28;20087;-91
2023/12/28 08:55:11;;;;;;;10.70;2.03;;;7.30;99.90;;;;;;5034673;28;20045;-91
2023/12/28 08:57:37;;;;;;;8.48;1.52;;;7.40;99.90;;;;;;5033111;28;20422;-92
2023/12/28 09:00:05;;;;;;;9.20;1.42;;;7.40;99.90;;;;;;5032922;28;20484;-91
2023/12/28 09:02:31;;;;;;;3.30;0.60;;;7.50;99.90;;;;;;5033255;28;20021;-91
2023/12/28 09:04:58;;;;;;;2.17;0.88;;;7.50;99.90;;;;;;5034140;28;20095;-91
2023/12/28 09:07:24;;;;;;;9.65;1.55;;;7.50;99.90;;;;;;5032847;28;20484;-91
2023/12/28 09:10:31;;;;;;;14.65;3.13;;;7.60;99.90;;;;;;5032317;28;20026;-90
2023/12/28 09:13:39;;;;;;;13.90;2.20;;;7.60;99.90;;;;;;5021886;28;20142;-90
2023/12/28 09:16:07;;;;;;;9.60;1.40;;;7.70;99.90;;;;;;5032486;28;20046;-89
2023/12/28 09:18:32;;;;;;;10.65;1.67;;;7.70;99.90;;;;;;5032919;28;20094;-90
2023/12/28 09:20:58;;;;;;;9.57;1.65;;;7.70;99.90;;;;;;5033828;28;20061;-90
2023/12/28 09:23:24;;;;;;;14.55;1.60;;;7.80;99.90;;;;;;5033608;28;20030;-90
2023/12/28 09:25:49;;;;;;;11.23;1.77;;;7.80;99.90;;;;;;5033767;28;20029;-90
2023/12/28 09:28:15;;;;;;;9.38;1.30;;;7.80;99.90;;;;;;5034066;28;20091;-90
2023/12/28 09:30:41;;;;;;;11.55;1.50;;;7.80;99.90;;;;;;5033186;28;20089;-90
2023/12/28 09:33:07;;;;;;;11.57;1.60;;;7.80;99.90;;;;;;5033794;28;20595;-91
2023/12/28 09:35:33;;;;;;;12.30;2.40;;;7.80;99.90;;;;;;5033928;28;20029;-90
2023/12/28 09:37:58;;;;;;;7.55;1.25;;;7.80;99.90;;;;;;5032587;28;20032;-91
2023/12/28 09:40:25;;;;;;;12.45;1.30;;;7.80;99.90;;;;;;5032491;28;20089;-92
2023/12/28 09:43:09;;;;;;;16.67;2.10;;;7.90;99.90;;;;;;5032666;28;20026;-92
2023/12/28 09:45:35;;;;;;;16.63;2.15;;;7.90;99.90;;;;;;5035148;28;20026;-92
2023/12/28 09:48:02;;;;;;;16.60;2.60;;;7.90;99.90;;;;;;5032450;28;20025;-90
2023/12/28 09:50:28;;;;;;;12.27;1.80;;;8.00;99.90;;;;;;5033974;28;20069;-91
2023/12/28 09:52:54;;;;;;;14.55;1.52;;;8.00;99.90;;;;;;5035680;28;20025;-91
2023/12/28 09:55:20;;;;;;;16.70;1.60;;;8.00;99.90;;;;;;5034975;28;20369;-91
2023/12/28 09:57:47;;;;;;;15.98;2.05;;;8.10;99.90;;;;;;5032197;28;20024;-90
2023/12/28 10:00:13;;;;;;;14.60;1.65;;;8.10;99.90;;;;;;5033850;28;20038;-90
2023/12/28 10:02:44;;;;;;;18.25;2.60;;;8.10;99.90;;;;;;5033511;28;20025;-90
2023/12/28 10:05:16;;;;;;;19.70;1.98;;;8.10;99.90;;;;;;5033248;28;20026;-91
2023/12/28 10:07:43;;;;;;;20.30;1.90;;;8.20;99.90;;;;;;5033373;28;20493;-91
2023/12/28 10:10:09;;;;;;;7.65;1.30;;;8.20;99.90;;;;;;5032493;28;20032;-91
2023/12/28 10:12:36;;;;;;;8.07;1.40;;;8.30;99.90;;;;;;5032445;28;20025;-91
2023/12/28 10:15:02;;;;;;;13.77;2.42;;;8.30;99.90;;;;;;5033841;28;20030;-91
2023/12/28 10:17:28;;;;;;;15.60;2.58;;;8.30;99.90;;;;;;5032905;28;20369;-91
2023/12/28 10:19:55;;;;;;;21.00;2.47;;;8.40;99.90;;;;;;5033624;28;20306;-90
2023/12/28 10:22:21;;;;;;;16.10;1.92;;;8.40;99.90;;;;;;5033906;28;20105;-90
2023/12/28 10:24:47;;;;;;;20.45;2.63;;;8.30;99.90;;;;;;5038526;28;20052;-89
2023/12/28 10:27:16;;;;;;;16.75;2.30;;;8.30;99.90;;;;;;5036797;28;20503;-89
2023/12/28 10:29:42;;;;;;;14.55;2.40;;;8.30;99.90;;;;;;5036949;28;20037;-90
2023/12/28 10:32:08;;;;;;;12.85;2.67;;;8.30;99.90;;;;;;5037318;28;20104;-89
2023/12/28 10:34:34;;;;;;;13.20;2.67;;;8.30;99.90;;;;;;5036275;28;20049;-90
2023/12/28 10:37:01;;;;;;;17.15;3.28;;;8.30;99.90;;;;;;5036069;28;20427;-90
2023/12/28 10:39:32;;;;;;;14.55;2.50;;;8.30;99.90;;;;;;5037042;28;20026;-90
2023/12/28 10:42:02;;;;;;;21.08;3.47;;;8.30;99.90;;;;;;5038458;28;20112;-89
2023/12/28 10:44:31;;;;;;;16.55;3.35;;;8.30;99.90;;;;;;5041731;28;20021;-90
2023/12/28 10:47:02;;;;;;;15.82;3.75;;;8.30;99.90;;;;;;5038082;28;20056;-90
2023/12/28 10:49:33;;;;;;;12.15;3.30;;;8.20;99.90;;;;;;5035792;28;20094;-90
2023/12/28 10:52:00;;;;;;;8.95;2.70;;;8.20;99.90;;;;;;5036059;28;20109;-90
2023/12/28 10:54:54;;;;;;;13.48;2.50;;;8.20;99.90;;;;;;5036711;28;20029;-90
2023/12/28 10:57:29;;;;;;;18.67;3.72;;;8.20;99.90;;;;;;5000634;28;20091;-89
2023/12/28 11:00:08;;;;;;;12.50;2.20;;;8.20;99.90;;;;;;5036841;28;20017;-91
2023/12/28 11:02:41;;;;;;;7.13;2.00;;;8.20;99.90;;;;;;5035762;28;20108;-91
2023/12/28 11:05:08;;;;;;;13.25;2.60;;;8.20;99.90;;;;;;5035649;28;20029;-90
2023/12/28 11:07:36;;;;;;;15.68;2.63;;;8.20;99.90;;;;;;5035213;28;20025;-90
2023/12/28 11:10:04;;;;;;;14.95;2.30;;;8.20;99.90;;;;;;5035492;28;20077;-90
2023/12/28 11:12:34;;;;;;;12.63;2.42;;;8.20;99.90;;;;;;5036236;28;20108;-91
2023/12/28 11:15:01;;;;;;;16.05;2.33;;;8.20;99.90;;;;;;5036162;28;20493;-90
2023/12/28 11:17:27;;;;;;;15.30;2.75;;;8.20;99.90;;;;;;5035277;28;20053;-91
2023/12/28 11:19:54;;;;;;;8.60;1.42;;;8.30;99.90;;;;;;5034673;28;20116;-90
2023/12/28 11:22:25;;;;;;;12.63;1.55;;;8.30;99.90;;;;;;5036021;28;20546;-90
2023/12/28 11:24:54;;;;;;;18.58;2.20;;;8.30;99.90;;;;;;5034864;28;20508;-91
2023/12/28 11:27:20;;;;;;;21.05;2.30;;;8.30;99.90;;;;;;5034863;28;20164;-89
2023/12/28 11:29:48;;;;;;;9.68;2.60;;;8.30;99.90;;;;;;5035016;28;20033;-90
2023/12/28 11:32:13;;;;;;;10.95;1.83;;;8.30;99.90;;;;;;5034921;28;20401;-90
2023/12/28 11:34:40;;;;;;;15.38;1.88;;;8.30;99.90;;;;;;5034042;28;20029;-91
2023/12/28 11:37:20;;;;;;;11.07;1.58;;;8.30;99.90;;;;;;5034936;28;20030;-91
2023/12/28 11:39:51;;;;;;;9.35;1.30;;;8.30;99.90;;;;;;5036212;28;20096;-91
2023/12/28 11:42:21;;;;;;;5.20;0.82;;;8.20;99.90;;;;;;5035001;28;20029;-90
2023/12/28 11:44:49;;;;;;;9.60;1.35;;;8.20;99.90;;;;;;5034905;28;20029;-91
2023/12/28 11:47:20;;;;;;;9.60;1.23;;;8.10;99.90;;;;;;5036016;28;20539;-92
2023/12/28 11:49:47;;;;;;;;;;;8.10;99.90;;;;;;5035290;28;20400;-92
2023/12/28 11:52:27;;;;;;;12.07;1.73;;;8.00;99.90;;;;;;5034901;28;20004;-91
2023/12/28 11:54:53;;;;;;;13.07;2.42;;;8.00;99.90;;;;;;5034923;28;20029;-91
2023/12/28 11:57:19;;;;;;;10.38;2.97;;;8.00;99.90;;;;;;5034608;28;20030;-92
2023/12/28 11:59:45;;;;;;;10.40;1.95;;;7.90;99.90;;;;;;5034406;28;20121;-91
2023/12/28 12:02:11;;;;;;;11.60;1.67;;;7.90;99.90;;;;;;5034219;28;20026;-92
2023/12/28 12:04:37;;;;;;;14.80;2.42;;;7.90;99.90;;;;;;5034196;28;20064;-91
2023/12/28 12:07:04;;;;;;;4.82;1.25;;;7.90;99.90;;;;;;5034773;28;20492;-89
2023/12/28 12:09:34;;;;;;;10.02;1.13;;;8.00;99.90;;;;;;5034469;28;20485;-91
2023/12/28 12:12:01;;;;;;;10.68;1.83;;;8.10;99.90;;;;;;5034296;28;20032;-91
2023/12/28 12:14:28;;;;;;;5.32;1.50;;;8.10;99.90;;;;;;5035064;28;20029;-91
2023/12/28 12:16:56;;;;;;;5.45;1.33;;;8.10;99.90;;;;;;5034001;28;20022;-91
2023/12/28 12:19:23;;;;;;;6.00;1.05;;;8.20;99.90;;;;;;5035281;28;20021;-91
2023/12/28 12:21:49;;;;;;;3.35;0.88;;;8.20;99.90;;;;;;5036689;28;20025;-89
2023/12/28 12:24:18;;;;;;;2.42;0.55;;;8.30;99.90;;;;;;5042552;28;20021;-92
2023/12/28 12:26:48;;;;;;;1.05;0.50;;;8.30;99.90;;;;;;5039435;28;20039;-91
2023/12/28 12:29:17;;;;;;;4.60;0.60;;;8.40;99.90;;;;;;5041452;28;20048;-90
2023/12/28 12:31:44;;;;;;;4.72;1.65;;;8.40;99.90;;;;;;5041515;28;20129;-90
2023/12/28 12:34:16;;;;;;;4.45;0.40;;;8.50;99.90;;;;;;5035960;28;20037;-90
2023/12/28 12:36:42;;;;;;;7.00;0.70;;;8.70;99.90;;;;;;5036586;28;20025;-91
2023/12/28 12:39:11;;;;;;;4.93;0.90;;;9.00;99.90;;;;;;5034992;28;20032;-91
2023/12/28 12:41:37;;;;;;;1.67;0.60;;;9.20;99.90;;;;;;5034173;28;20552;-91
2023/12/28 12:44:04;;;;;;;3.03;0.75;;;9.20;99.90;;;;;;5034594;28;20112;-89
2023/12/28 12:46:30;;;;;;;3.38;0.52;;;9.20;99.90;;;;;;5032931;28;20036;-91
2023/12/28 12:49:02;;;;;;;2.50;0.73;;;9.10;99.90;;;;;;5033602;28;20121;-91